sensor_id;sensor_type;location;lat;lon;timestamp;temperature;humidity
5059;DHT22;2548;52.050;11.036;2023-07-09T00:01:13;18.10;99.90
5059;DHT22;2548;52.050;11.036;2023-07-09T00:03:41;18.00;99.90
5059;DHT22;2548;52.050;11.036;2023-07-09T00:06:09;17.80;99.90
5059;DHT22;2548;52.050;11.036;2023-07-09T00:08:40;17.80;99.90
5059;DHT22;2548;52.050;11.036;2023-07-09T00:11:11;17.80;99.90
5059;DHT22;2548;52.050;11.036;2023-07-09T00:13:37;17.80;99.90
5059;DHT22;2548;52.050;11.036;2023-07-09T00:16:11;17.70;99.90
5059;DHT22;2548;52.050;11.036;2023-07-09T00:18:40;17.60;99.90
5059;DHT22;2548;52.050;11.036;2023-07-09T00:21:08;17.60;99.90
5059;DHT22;2548;52.050;11.036;2023-07-09T00:23:36;17.60;99.90
5059;DHT22;2548;52.050;11.036;2023-07-09T00:26:08;17.60;99.90
5059;DHT22;2548;52.050;11.036;2023-07-09T00:28:37;17.60;99.90
5059;DHT22;2548;52.050;11.036;2023-07-09T00:31:04;17.60;99.90
5059;DHT22;2548;52.050;11.036;2023-07-09T00:33:32;17.60;99.90
5059;DHT22;2548;52.050;11.036;2023-07-09T00:35:59;17.50;99.90
5059;DHT22;2548;52.050;11.036;2023-07-09T00:38:28;17.50;99.90
5059;DHT22;2548;52.050;11.036;2023-07-09T00:41:02;17.50;99.90
5059;DHT22;2548;52.050;11.036;2023-07-09T00:43:33;17.40;99.90
5059;DHT22;2548;52.050;11.036;2023-07-09T00:47:07;17.40;99.90
5059;DHT22;2548;52.050;11.036;2023-07-09T00:49:07;17.30;99.90
5059;DHT22;2548;52.050;11.036;2023-07-09T00:51:38;17.30;99.90
5059;DHT22;2548;52.050;11.036;2023-07-09T00:54:13;17.30;99.90
5059;DHT22;2548;52.050;11.036;2023-07-09T00:56:44;17.40;99.90
5059;DHT22;2548;52.050;11.036;2023-07-09T00:59:15;17.40;99.90
5059;DHT22;2548;52.050;11.036;2023-07-09T01:01:46;17.30;99.90
5059;DHT22;2548;52.050;11.036;2023-07-09T01:04:17;17.30;99.90
5059;DHT22;2548;52.050;11.036;2023-07-09T01:06:50;17.30;99.90
5059;DHT22;2548;52.050;11.036;2023-07-09T01:09:18;17.30;99.90
5059;DHT22;2548;52.050;11.036;2023-07-09T01:11:46;17.20;99.90
5059;DHT22;2548;52.050;11.036;2023-07-09T01:14:15;17.20;99.90
5059;DHT22;2548;52.050;11.036;2023-07-09T01:16:50;17.20;99.90
5059;DHT22;2548;52.050;11.036;2023-07-09T01:19:25;17.20;99.90
5059;DHT22;2548;52.050;11.036;2023-07-09T01:21:56;17.30;99.90
5059;DHT22;2548;52.050;11.036;2023-07-09T01:24:49;17.30;99.90
5059;DHT22;2548;52.050;11.036;2023-07-09T01:27:19;17.30;99.90
5059;DHT22;2548;52.050;11.036;2023-07-09T01:29:47;17.30;99.90
5059;DHT22;2548;52.050;11.036;2023-07-09T01:32:16;17.30;99.90
5059;DHT22;2548;52.050;11.036;2023-07-09T01:34:45;17.40;99.90
5059;DHT22;2548;52.050;11.036;2023-07-09T01:37:16;17.30;99.90
5059;DHT22;2548;52.050;11.036;2023-07-09T01:39:43;17.20;99.90
5059;DHT22;2548;52.050;11.036;2023-07-09T01:42:11;17.10;99.90
5059;DHT22;2548;52.050;11.036;2023-07-09T01:44:39;17.10;99.90
5059;DHT22;2548;52.050;11.036;2023-07-09T01:47:07;17.10;99.90
5059;DHT22;2548;52.050;11.036;2023-07-09T01:49:35;17.00;99.90
5059;DHT22;2548;52.050;11.036;2023-07-09T01:52:03;16.90;99.90
5059;DHT22;2548;52.050;11.036;2023-07-09T01:54:32;16.70;99.90
5059;DHT22;2548;52.050;11.036;2023-07-09T01:57:15;16.70;99.90
5059;DHT22;2548;52.050;11.036;2023-07-09T01:59:45;16.70;99.90
5059;DHT22;2548;52.050;11.036;2023-07-09T02:02:13;16.60;99.90
5059;DHT22;2548;52.050;11.036;2023-07-09T02:04:46;16.50;99.90
5059;DHT22;2548;52.050;11.036;2023-07-09T02:07:14;16.50;99.90
5059;DHT22;2548;52.050;11.036;2023-07-09T02:09:43;16.40;99.90
5059;DHT22;2548;52.050;11.036;2023-07-09T02:12:12;16.40;99.90
5059;DHT22;2548;52.050;11.036;2023-07-09T02:14:41;16.40;99.90
5059;DHT22;2548;52.050;11.036;2023-07-09T02:17:09;16.40;99.90
5059;DHT22;2548;52.050;11.036;2023-07-09T02:19:37;16.40;99.90
5059;DHT22;2548;52.050;11.036;2023-07-09T02:22:05;16.30;99.90
5059;DHT22;2548;52.050;11.036;2023-07-09T02:24:33;16.20;99.90
5059;DHT22;2548;52.050;11.036;2023-07-09T02:27:04;16.20;99.90
5059;DHT22;2548;52.050;11.036;2023-07-09T02:29:33;16.10;99.90
5059;DHT22;2548;52.050;11.036;2023-07-09T02:32:01;16.20;99.90
5059;DHT22;2548;52.050;11.036;2023-07-09T02:34:30;16.20;99.90
5059;DHT22;2548;52.050;11.036;2023-07-09T02:36:59;16.20;99.90
5059;DHT22;2548;52.050;11.036;2023-07-09T02:39:26;16.20;99.90
5059;DHT22;2548;52.050;11.036;2023-07-09T02:41:54;16.10;99.90
5059;DHT22;2548;52.050;11.036;2023-07-09T02:44:23;16.10;99.90
5059;DHT22;2548;52.050;11.036;2023-07-09T02:46:50;16.10;99.90
5059;DHT22;2548;52.050;11.036;2023-07-09T02:49:18;16.00;99.90
5059;DHT22;2548;52.050;11.036;2023-07-09T02:51:45;15.90;99.90
5059;DHT22;2548;52.050;11.036;2023-07-09T02:54:13;15.80;99.90
5059;DHT22;2548;52.050;11.036;2023-07-09T02:56:40;15.80;99.90
5059;DHT22;2548;52.050;11.036;2023-07-09T02:59:08;15.80;99.90
5059;DHT22;2548;52.050;11.036;2023-07-09T03:01:37;15.70;99.90
5059;DHT22;2548;52.050;11.036;2023-07-09T03:04:04;15.70;99.90
5059;DHT22;2548;52.050;11.036;2023-07-09T03:06:33;15.80;99.90
5059;DHT22;2548;52.050;11.036;2023-07-09T03:09:01;15.70;99.90
5059;DHT22;2548;52.050;11.036;2023-07-09T03:11:29;15.70;99.90
5059;DHT22;2548;52.050;11.036;2023-07-09T03:13:58;15.60;99.90
5059;DHT22;2548;52.050;11.036;2023-07-09T03:16:27;15.60;99.90
5059;DHT22;2548;52.050;11.036;2023-07-09T03:18:56;15.60;99.90
5059;DHT22;2548;52.050;11.036;2023-07-09T03:21:25;15.70;99.90
5059;DHT22;2548;52.050;11.036;2023-07-09T03:23:53;15.70;99.90
5059;DHT22;2548;52.050;11.036;2023-07-09T03:26:21;15.70;99.90
5059;DHT22;2548;52.050;11.036;2023-07-09T03:28:49;15.70;99.90
5059;DHT22;2548;52.050;11.036;2023-07-09T03:31:17;15.70;99.90
5059;DHT22;2548;52.050;11.036;2023-07-09T03:33:46;15.70;99.90
5059;DHT22;2548;52.050;11.036;2023-07-09T03:36:15;15.80;99.90
5059;DHT22;2548;52.050;11.036;2023-07-09T03:38:42;15.80;99.90
5059;DHT22;2548;52.050;11.036;2023-07-09T03:41:10;15.80;99.90
5059;DHT22;2548;52.050;11.036;2023-07-09T03:43:37;15.80;99.90
5059;DHT22;2548;52.050;11.036;2023-07-09T03:46:05;15.80;99.90
5059;DHT22;2548;52.050;11.036;2023-07-09T03:48:32;15.80;99.90
5059;DHT22;2548;52.050;11.036;2023-07-09T03:51:00;15.80;99.90
5059;DHT22;2548;52.050;11.036;2023-07-09T03:53:29;15.80;99.90
5059;DHT22;2548;52.050;11.036;2023-07-09T03:55:56;15.80;99.90
5059;DHT22;2548;52.050;11.036;2023-07-09T03:58:26;15.80;99.90
5059;DHT22;2548;52.050;11.036;2023-07-09T04:00:54;15.80;99.90
5059;DHT22;2548;52.050;11.036;2023-07-09T04:03:22;15.90;99.90
5059;DHT22;2548;52.050;11.036;2023-07-09T04:05:49;15.90;99.90
5059;DHT22;2548;52.050;11.036;2023-07-09T04:08:17;16.00;99.90
5059;DHT22;2548;52.050;11.036;2023-07-09T04:10:46;16.10;99.90
5059;DHT22;2548;52.050;11.036;2023-07-09T04:13:13;16.10;99.90
5059;DHT22;2548;52.050;11.036;2023-07-09T04:15:41;16.20;99.90
5059;DHT22;2548;52.050;11.036;2023-07-09T04:18:08;16.20;99.90
5059;DHT22;2548;52.050;11.036;2023-07-09T04:20:36;16.30;99.90
5059;DHT22;2548;52.050;11.036;2023-07-09T04:23:03;16.40;99.90
5059;DHT22;2548;52.050;11.036;2023-07-09T04:25:30;16.40;99.90
5059;DHT22;2548;52.050;11.036;2023-07-09T04:27:59;16.50;99.90
5059;DHT22;2548;52.050;11.036;2023-07-09T04:30:27;16.60;99.90
5059;DHT22;2548;52.050;11.036;2023-07-09T04:32:54;16.70;99.90
5059;DHT22;2548;52.050;11.036;2023-07-09T04:35:21;16.80;99.90
5059;DHT22;2548;52.050;11.036;2023-07-09T04:37:49;16.90;99.90
5059;DHT22;2548;52.050;11.036;2023-07-09T04:40:18;17.00;99.90
5059;DHT22;2548;52.050;11.036;2023-07-09T04:42:45;17.10;99.90
5059;DHT22;2548;52.050;11.036;2023-07-09T04:45:14;17.20;99.90
5059;DHT22;2548;52.050;11.036;2023-07-09T04:47:42;17.20;99.90
5059;DHT22;2548;52.050;11.036;2023-07-09T04:50:10;17.30;99.90
5059;DHT22;2548;52.050;11.036;2023-07-09T04:52:38;17.40;99.90
5059;DHT22;2548;52.050;11.036;2023-07-09T04:55:06;17.50;99.90
5059;DHT22;2548;52.050;11.036;2023-07-09T04:57:34;17.50;99.90
5059;DHT22;2548;52.050;11.036;2023-07-09T05:00:02;17.60;99.90
5059;DHT22;2548;52.050;11.036;2023-07-09T05:02:33;17.60;99.90
5059;DHT22;2548;52.050;11.036;2023-07-09T05:05:00;17.70;99.90
5059;DHT22;2548;52.050;11.036;2023-07-09T05:07:28;17.80;99.90
5059;DHT22;2548;52.050;11.036;2023-07-09T05:09:55;17.90;99.90
5059;DHT22;2548;52.050;11.036;2023-07-09T05:12:26;17.90;99.90
5059;DHT22;2548;52.050;11.036;2023-07-09T05:14:54;18.00;99.90
5059;DHT22;2548;52.050;11.036;2023-07-09T05:17:22;18.10;99.90
5059;DHT22;2548;52.050;11.036;2023-07-09T05:19:52;18.20;99.90
5059;DHT22;2548;52.050;11.036;2023-07-09T05:22:20;18.20;99.90
5059;DHT22;2548;52.050;11.036;2023-07-09T05:24:47;18.30;99.90
5059;DHT22;2548;52.050;11.036;2023-07-09T05:27:14;18.40;99.90
5059;DHT22;2548;52.050;11.036;2023-07-09T05:29:42;18.50;99.90
5059;DHT22;2548;52.050;11.036;2023-07-09T05:32:09;18.70;99.90
5059;DHT22;2548;52.050;11.036;2023-07-09T05:34:37;18.80;99.90
5059;DHT22;2548;52.050;11.036;2023-07-09T05:37:05;18.90;99.90
5059;DHT22;2548;52.050;11.036;2023-07-09T05:39:33;19.00;99.90
5059;DHT22;2548;52.050;11.036;2023-07-09T05:42:01;19.10;99.90
5059;DHT22;2548;52.050;11.036;2023-07-09T05:44:28;19.20;99.90
5059;DHT22;2548;52.050;11.036;2023-07-09T05:46:56;19.30;99.90
5059;DHT22;2548;52.050;11.036;2023-07-09T05:49:23;19.40;99.90
5059;DHT22;2548;52.050;11.036;2023-07-09T05:51:50;19.50;99.90
5059;DHT22;2548;52.050;11.036;2023-07-09T05:54:19;19.60;99.90
5059;DHT22;2548;52.050;11.036;2023-07-09T05:56:47;19.70;99.90
5059;DHT22;2548;52.050;11.036;2023-07-09T05:59:15;19.80;99.90
5059;DHT22;2548;52.050;11.036;2023-07-09T06:01:42;19.90;99.90
5059;DHT22;2548;52.050;11.036;2023-07-09T06:04:09;19.90;99.90
5059;DHT22;2548;52.050;11.036;2023-07-09T06:06:40;20.00;99.90
5059;DHT22;2548;52.050;11.036;2023-07-09T06:09:08;20.10;99.90
5059;DHT22;2548;52.050;11.036;2023-07-09T06:11:37;20.20;99.90
5059;DHT22;2548;52.050;11.036;2023-07-09T06:14:05;20.20;99.90
5059;DHT22;2548;52.050;11.036;2023-07-09T06:16:32;20.30;99.90
5059;DHT22;2548;52.050;11.036;2023-07-09T06:18:59;20.50;99.90
5059;DHT22;2548;52.050;11.036;2023-07-09T06:21:27;20.60;99.90
5059;DHT22;2548;52.050;11.036;2023-07-09T06:23:54;20.70;99.90
5059;DHT22;2548;52.050;11.036;2023-07-09T06:26:22;20.80;99.90
5059;DHT22;2548;52.050;11.036;2023-07-09T06:28:51;20.90;99.90
5059;DHT22;2548;52.050;11.036;2023-07-09T06:31:18;21.10;99.90
5059;DHT22;2548;52.050;11.036;2023-07-09T06:33:47;21.20;99.90
5059;DHT22;2548;52.050;11.036;2023-07-09T06:36:17;21.30;99.90
5059;DHT22;2548;52.050;11.036;2023-07-09T06:38:45;21.40;99.90
5059;DHT22;2548;52.050;11.036;2023-07-09T06:41:14;21.60;99.90
5059;DHT22;2548;52.050;11.036;2023-07-09T06:43:42;21.70;99.90
5059;DHT22;2548;52.050;11.036;2023-07-09T06:46:13;21.80;99.90
5059;DHT22;2548;52.050;11.036;2023-07-09T06:48:41;21.90;99.90
5059;DHT22;2548;52.050;11.036;2023-07-09T06:51:08;22.10;99.90
5059;DHT22;2548;52.050;11.036;2023-07-09T06:53:36;22.20;99.90
5059;DHT22;2548;52.050;11.036;2023-07-09T06:56:03;22.30;99.90
5059;DHT22;2548;52.050;11.036;2023-07-09T06:58:32;22.40;99.90
5059;DHT22;2548;52.050;11.036;2023-07-09T07:01:01;22.60;99.90
5059;DHT22;2548;52.050;11.036;2023-07-09T07:03:32;22.70;99.90
5059;DHT22;2548;52.050;11.036;2023-07-09T07:05:59;22.80;99.90
5059;DHT22;2548;52.050;11.036;2023-07-09T07:08:27;22.90;99.90
5059;DHT22;2548;52.050;11.036;2023-07-09T07:10:56;23.10;99.90
5059;DHT22;2548;52.050;11.036;2023-07-09T07:13:28;23.20;99.90
5059;DHT22;2548;52.050;11.036;2023-07-09T07:15:56;23.30;99.90
5059;DHT22;2548;52.050;11.036;2023-07-09T07:18:23;23.40;99.90
5059;DHT22;2548;52.050;11.036;2023-07-09T07:20:52;23.60;99.90
5059;DHT22;2548;52.050;11.036;2023-07-09T07:23:19;23.70;99.90
5059;DHT22;2548;52.050;11.036;2023-07-09T07:25:47;23.90;99.90
5059;DHT22;2548;52.050;11.036;2023-07-09T07:28:15;24.00;99.90
5059;DHT22;2548;52.050;11.036;2023-07-09T07:30:43;24.20;99.90
5059;DHT22;2548;52.050;11.036;2023-07-09T07:33:12;24.30;99.90
5059;DHT22;2548;52.050;11.036;2023-07-09T07:35:40;24.40;99.90
5059;DHT22;2548;52.050;11.036;2023-07-09T07:38:09;24.50;99.90
5059;DHT22;2548;52.050;11.036;2023-07-09T07:40:36;24.70;99.90
5059;DHT22;2548;52.050;11.036;2023-07-09T07:43:04;24.80;99.90
5059;DHT22;2548;52.050;11.036;2023-07-09T07:45:31;24.90;99.90
5059;DHT22;2548;52.050;11.036;2023-07-09T07:47:59;25.10;99.90
5059;DHT22;2548;52.050;11.036;2023-07-09T07:50:26;25.20;99.90
5059;DHT22;2548;52.050;11.036;2023-07-09T07:52:54;25.40;99.90
5059;DHT22;2548;52.050;11.036;2023-07-09T07:55:22;25.50;99.90
5059;DHT22;2548;52.050;11.036;2023-07-09T07:57:50;25.70;99.90
5059;DHT22;2548;52.050;11.036;2023-07-09T08:00:18;25.80;99.90
5059;DHT22;2548;52.050;11.036;2023-07-09T08:02:46;25.90;99.90
5059;DHT22;2548;52.050;11.036;2023-07-09T08:05:14;26.00;99.90
5059;DHT22;2548;52.050;11.036;2023-07-09T08:07:41;26.10;99.90
5059;DHT22;2548;52.050;11.036;2023-07-09T08:10:09;26.30;99.90
5059;DHT22;2548;52.050;11.036;2023-07-09T08:12:39;26.40;99.90
5059;DHT22;2548;52.050;11.036;2023-07-09T08:15:07;26.50;99.90
5059;DHT22;2548;52.050;11.036;2023-07-09T08:17:35;26.60;99.90
5059;DHT22;2548;52.050;11.036;2023-07-09T08:20:03;26.70;99.90
5059;DHT22;2548;52.050;11.036;2023-07-09T08:22:30;26.80;99.90
5059;DHT22;2548;52.050;11.036;2023-07-09T08:24:58;26.90;99.90
5059;DHT22;2548;52.050;11.036;2023-07-09T08:27:25;27.00;99.90
5059;DHT22;2548;52.050;11.036;2023-07-09T08:29:57;27.20;99.90
5059;DHT22;2548;52.050;11.036;2023-07-09T08:32:30;27.30;99.90
5059;DHT22;2548;52.050;11.036;2023-07-09T08:34:58;27.40;99.90
5059;DHT22;2548;52.050;11.036;2023-07-09T08:37:29;27.60;99.90
5059;DHT22;2548;52.050;11.036;2023-07-09T08:39:59;27.70;99.90
5059;DHT22;2548;52.050;11.036;2023-07-09T08:42:31;27.90;99.90
5059;DHT22;2548;52.050;11.036;2023-07-09T08:45:23;28.00;99.90
5059;DHT22;2548;52.050;11.036;2023-07-09T08:47:59;28.10;99.90
5059;DHT22;2548;52.050;11.036;2023-07-09T08:50:33;28.20;99.90
5059;DHT22;2548;52.050;11.036;2023-07-09T08:53:02;28.20;99.90
5059;DHT22;2548;52.050;11.036;2023-07-09T08:55:33;28.30;99.90
5059;DHT22;2548;52.050;11.036;2023-07-09T08:58:23;28.50;99.90
5059;DHT22;2548;52.050;11.036;2023-07-09T09:00:55;28.70;99.90
5059;DHT22;2548;52.050;11.036;2023-07-09T09:03:35;28.80;99.90
5059;DHT22;2548;52.050;11.036;2023-07-09T09:06:12;28.90;99.90
5059;DHT22;2548;52.050;11.036;2023-07-09T09:08:49;29.00;99.90
5059;DHT22;2548;52.050;11.036;2023-07-09T09:11:23;29.10;99.90
5059;DHT22;2548;52.050;11.036;2023-07-09T09:13:56;29.10;99.90
5059;DHT22;2548;52.050;11.036;2023-07-09T09:16:35;29.20;99.90
5059;DHT22;2548;52.050;11.036;2023-07-09T09:19:14;29.30;99.90
5059;DHT22;2548;52.050;11.036;2023-07-09T09:21:56;29.40;99.90
5059;DHT22;2548;52.050;11.036;2023-07-09T09:24:29;29.50;99.90
5059;DHT22;2548;52.050;11.036;2023-07-09T09:26:58;29.70;99.90
5059;DHT22;2548;52.050;11.036;2023-07-09T09:29:27;29.80;99.90
5059;DHT22;2548;52.050;11.036;2023-07-09T09:31:58;29.90;99.90
5059;DHT22;2548;52.050;11.036;2023-07-09T09:34:33;30.10;99.90
5059;DHT22;2548;52.050;11.036;2023-07-09T09:37:00;30.20;99.90
5059;DHT22;2548;52.050;11.036;2023-07-09T09:39:28;30.30;99.90
5059;DHT22;2548;52.050;11.036;2023-07-09T09:41:57;30.50;99.90
5059;DHT22;2548;52.050;11.036;2023-07-09T09:44:27;30.60;99.90
5059;DHT22;2548;52.050;11.036;2023-07-09T09:46:57;30.70;99.90
5059;DHT22;2548;52.050;11.036;2023-07-09T09:49:25;30.70;99.90
5059;DHT22;2548;52.050;11.036;2023-07-09T09:51:54;30.70;99.90
5059;DHT22;2548;52.050;11.036;2023-07-09T09:54:27;30.80;99.90
5059;DHT22;2548;52.050;11.036;2023-07-09T09:56:57;30.90;99.90
5059;DHT22;2548;52.050;11.036;2023-07-09T09:59:27;30.90;99.90
5059;DHT22;2548;52.050;11.036;2023-07-09T10:02:00;31.00;99.90
5059;DHT22;2548;52.050;11.036;2023-07-09T10:04:29;31.10;99.90
5059;DHT22;2548;52.050;11.036;2023-07-09T10:07:01;31.20;99.90
5059;DHT22;2548;52.050;11.036;2023-07-09T10:09:41;31.40;99.90
5059;DHT22;2548;52.050;11.036;2023-07-09T10:12:24;31.40;99.90
5059;DHT22;2548;52.050;11.036;2023-07-09T10:14:58;31.50;99.90
5059;DHT22;2548;52.050;11.036;2023-07-09T10:17:37;31.60;99.90
5059;DHT22;2548;52.050;11.036;2023-07-09T10:20:20;31.60;99.90
5059;DHT22;2548;52.050;11.036;2023-07-09T10:22:54;31.70;99.90
5059;DHT22;2548;52.050;11.036;2023-07-09T10:25:35;31.80;99.90
5059;DHT22;2548;52.050;11.036;2023-07-09T10:28:35;31.90;99.40
5059;DHT22;2548;52.050;11.036;2023-07-09T10:31:17;32.00;99.60
5059;DHT22;2548;52.050;11.036;2023-07-09T10:34:03;32.00;99.40
5059;DHT22;2548;52.050;11.036;2023-07-09T10:36:43;32.20;99.30
5059;DHT22;2548;52.050;11.036;2023-07-09T10:39:22;32.30;99.30
5059;DHT22;2548;52.050;11.036;2023-07-09T10:41:55;32.50;99.20
5059;DHT22;2548;52.050;11.036;2023-07-09T10:44:33;32.50;97.50
5059;DHT22;2548;52.050;11.036;2023-07-09T10:47:05;32.50;98.60
5059;DHT22;2548;52.050;11.036;2023-07-09T10:49:39;32.60;98.80
5059;DHT22;2548;52.050;11.036;2023-07-09T10:52:15;32.70;97.90
5059;DHT22;2548;52.050;11.036;2023-07-09T10:54:55;32.70;96.70
5059;DHT22;2548;52.050;11.036;2023-07-09T10:57:29;32.90;96.40
5059;DHT22;2548;52.050;11.036;2023-07-09T10:59:58;32.90;95.50
5059;DHT22;2548;52.050;11.036;2023-07-09T11:02:29;33.00;94.90
5059;DHT22;2548;52.050;11.036;2023-07-09T11:05:00;33.10;93.60
5059;DHT22;2548;52.050;11.036;2023-07-09T11:07:33;33.10;93.30
5059;DHT22;2548;52.050;11.036;2023-07-09T11:10:05;33.10;92.90
5059;DHT22;2548;52.050;11.036;2023-07-09T11:12:38;33.20;92.70
5059;DHT22;2548;52.050;11.036;2023-07-09T11:15:11;33.30;92.70
5059;DHT22;2548;52.050;11.036;2023-07-09T11:17:45;33.40;93.00
5059;DHT22;2548;52.050;11.036;2023-07-09T11:20:25;33.40;91.20
5059;DHT22;2548;52.050;11.036;2023-07-09T11:22:54;33.50;91.90
5059;DHT22;2548;52.050;11.036;2023-07-09T11:25:30;33.60;90.20
5059;DHT22;2548;52.050;11.036;2023-07-09T11:28:04;33.70;92.00
5059;DHT22;2548;52.050;11.036;2023-07-09T11:30:49;33.60;90.60
5059;DHT22;2548;52.050;11.036;2023-07-09T11:33:25;33.80;92.10
5059;DHT22;2548;52.050;11.036;2023-07-09T11:36:11;34.00;90.60
5059;DHT22;2548;52.050;11.036;2023-07-09T11:38:43;34.10;91.30
5059;DHT22;2548;52.050;11.036;2023-07-09T11:41:37;34.20;90.90
5059;DHT22;2548;52.050;11.036;2023-07-09T11:44:17;34.30;90.80
5059;DHT22;2548;52.050;11.036;2023-07-09T11:47:12;34.40;90.40
5059;DHT22;2548;52.050;11.036;2023-07-09T11:49:52;34.50;90.00
5059;DHT22;2548;52.050;11.036;2023-07-09T11:52:28;34.70;90.00
5059;DHT22;2548;52.050;11.036;2023-07-09T11:54:56;34.80;87.10
5059;DHT22;2548;52.050;11.036;2023-07-09T11:57:31;34.90;85.50
5059;DHT22;2548;52.050;11.036;2023-07-09T12:00:09;34.90;86.70
5059;DHT22;2548;52.050;11.036;2023-07-09T12:02:40;35.00;88.60
5059;DHT22;2548;52.050;11.036;2023-07-09T12:05:09;35.10;88.20
5059;DHT22;2548;52.050;11.036;2023-07-09T12:07:41;35.20;85.80
5059;DHT22;2548;52.050;11.036;2023-07-09T12:10:23;35.20;86.00
5059;DHT22;2548;52.050;11.036;2023-07-09T12:12:54;35.20;85.30
5059;DHT22;2548;52.050;11.036;2023-07-09T12:15:24;35.20;84.80
5059;DHT22;2548;52.050;11.036;2023-07-09T12:17:55;35.20;86.40
5059;DHT22;2548;52.050;11.036;2023-07-09T12:20:30;35.30;85.80
5059;DHT22;2548;52.050;11.036;2023-07-09T12:22:59;35.30;81.90
5059;DHT22;2548;52.050;11.036;2023-07-09T12:25:29;35.30;83.00
5059;DHT22;2548;52.050;11.036;2023-07-09T12:27:58;35.40;85.00
5059;DHT22;2548;52.050;11.036;2023-07-09T12:30:26;35.30;82.70
5059;DHT22;2548;52.050;11.036;2023-07-09T12:32:53;35.40;82.60
5059;DHT22;2548;52.050;11.036;2023-07-09T12:35:21;35.60;86.00
5059;DHT22;2548;52.050;11.036;2023-07-09T12:37:50;35.50;80.30
5059;DHT22;2548;52.050;11.036;2023-07-09T12:40:29;35.50;80.10
5059;DHT22;2548;52.050;11.036;2023-07-09T12:42:59;35.50;83.10
5059;DHT22;2548;52.050;11.036;2023-07-09T12:45:31;35.50;80.70
5059;DHT22;2548;52.050;11.036;2023-07-09T12:48:04;35.60;82.30
5059;DHT22;2548;52.050;11.036;2023-07-09T12:50:34;35.80;79.50
5059;DHT22;2548;52.050;11.036;2023-07-09T12:53:03;35.70;81.50
5059;DHT22;2548;52.050;11.036;2023-07-09T12:55:45;35.70;77.50
5059;DHT22;2548;52.050;11.036;2023-07-09T12:58:19;35.60;79.10
5059;DHT22;2548;52.050;11.036;2023-07-09T13:00:48;35.70;82.10
5059;DHT22;2548;52.050;11.036;2023-07-09T13:03:19;35.90;83.30
5059;DHT22;2548;52.050;11.036;2023-07-09T13:05:55;36.00;81.00
5059;DHT22;2548;52.050;11.036;2023-07-09T13:08:28;35.90;79.30
5059;DHT22;2548;52.050;11.036;2023-07-09T13:11:01;35.90;79.20
5059;DHT22;2548;52.050;11.036;2023-07-09T13:13:31;35.90;77.60
5059;DHT22;2548;52.050;11.036;2023-07-09T13:16:02;36.00;78.70
5059;DHT22;2548;52.050;11.036;2023-07-09T13:18:29;35.90;78.80
5059;DHT22;2548;52.050;11.036;2023-07-09T13:21:00;35.90;79.70
5059;DHT22;2548;52.050;11.036;2023-07-09T13:23:42;36.00;78.90
5059;DHT22;2548;52.050;11.036;2023-07-09T13:26:14;36.00;79.20
5059;DHT22;2548;52.050;11.036;2023-07-09T13:28:44;36.10;78.50
5059;DHT22;2548;52.050;11.036;2023-07-09T13:31:14;36.00;78.00
5059;DHT22;2548;52.050;11.036;2023-07-09T13:33:43;35.90;76.80
5059;DHT22;2548;52.050;11.036;2023-07-09T13:36:12;36.00;80.30
5059;DHT22;2548;52.050;11.036;2023-07-09T13:38:40;36.10;79.30
5059;DHT22;2548;52.050;11.036;2023-07-09T13:41:19;36.20;76.40
5059;DHT22;2548;52.050;11.036;2023-07-09T13:43:49;36.30;77.90
5059;DHT22;2548;52.050;11.036;2023-07-09T13:46:19;36.50;79.60
5059;DHT22;2548;52.050;11.036;2023-07-09T13:48:47;36.50;74.00
5059;DHT22;2548;52.050;11.036;2023-07-09T13:51:16;36.50;78.00
5059;DHT22;2548;52.050;11.036;2023-07-09T13:53:50;36.50;77.00
5059;DHT22;2548;52.050;11.036;2023-07-09T13:56:23;36.50;77.90
5059;DHT22;2548;52.050;11.036;2023-07-09T13:58:51;36.50;75.50
5059;DHT22;2548;52.050;11.036;2023-07-09T14:01:27;36.50;78.10
5059;DHT22;2548;52.050;11.036;2023-07-09T14:04:01;36.50;75.40
5059;DHT22;2548;52.050;11.036;2023-07-09T14:06:29;36.30;75.60
5059;DHT22;2548;52.050;11.036;2023-07-09T14:09:02;36.30;75.30
5059;DHT22;2548;52.050;11.036;2023-07-09T14:11:32;36.00;74.60
5059;DHT22;2548;52.050;11.036;2023-07-09T14:14:09;36.00;78.30
5059;DHT22;2548;52.050;11.036;2023-07-09T14:16:38;36.00;75.30
5059;DHT22;2548;52.050;11.036;2023-07-09T14:19:11;36.00;74.10
5059;DHT22;2548;52.050;11.036;2023-07-09T14:21:39;36.10;76.30
5059;DHT22;2548;52.050;11.036;2023-07-09T14:24:17;36.10;74.50
5059;DHT22;2548;52.050;11.036;2023-07-09T14:26:57;36.10;75.30
5059;DHT22;2548;52.050;11.036;2023-07-09T14:29:25;35.90;75.60
5059;DHT22;2548;52.050;11.036;2023-07-09T14:31:53;35.80;75.50
5059;DHT22;2548;52.050;11.036;2023-07-09T14:34:23;35.90;77.50
5059;DHT22;2548;52.050;11.036;2023-07-09T14:36:52;35.90;74.50
5059;DHT22;2548;52.050;11.036;2023-07-09T14:39:25;36.00;76.30
5059;DHT22;2548;52.050;11.036;2023-07-09T14:41:53;36.00;75.20
5059;DHT22;2548;52.050;11.036;2023-07-09T14:44:27;36.00;78.40
5059;DHT22;2548;52.050;11.036;2023-07-09T14:46:58;36.10;73.90
5059;DHT22;2548;52.050;11.036;2023-07-09T14:49:26;36.20;75.20
5059;DHT22;2548;52.050;11.036;2023-07-09T14:51:55;36.20;76.20
5059;DHT22;2548;52.050;11.036;2023-07-09T14:54:24;36.30;75.60
5059;DHT22;2548;52.050;11.036;2023-07-09T14:56:53;36.40;77.40
5059;DHT22;2548;52.050;11.036;2023-07-09T14:59:23;36.30;72.20
5059;DHT22;2548;52.050;11.036;2023-07-09T15:01:52;36.20;74.40
5059;DHT22;2548;52.050;11.036;2023-07-09T15:04:29;36.10;73.00
5059;DHT22;2548;52.050;11.036;2023-07-09T15:07:00;36.10;76.30
5059;DHT22;2548;52.050;11.036;2023-07-09T15:09:28;36.20;75.50
5059;DHT22;2548;52.050;11.036;2023-07-09T15:11:57;36.00;72.80
5059;DHT22;2548;52.050;11.036;2023-07-09T15:14:26;36.00;75.90
5059;DHT22;2548;52.050;11.036;2023-07-09T15:16:58;36.00;75.40
5059;DHT22;2548;52.050;11.036;2023-07-09T15:19:26;36.00;75.50
5059;DHT22;2548;52.050;11.036;2023-07-09T15:21:54;36.10;73.80
5059;DHT22;2548;52.050;11.036;2023-07-09T15:24:25;36.20;72.90
5059;DHT22;2548;52.050;11.036;2023-07-09T15:26:55;36.20;73.40
5059;DHT22;2548;52.050;11.036;2023-07-09T15:29:23;36.20;74.80
5059;DHT22;2548;52.050;11.036;2023-07-09T15:31:51;36.10;71.30
5059;DHT22;2548;52.050;11.036;2023-07-09T15:34:23;36.00;75.00
5059;DHT22;2548;52.050;11.036;2023-07-09T15:36:51;36.00;74.80
5059;DHT22;2548;52.050;11.036;2023-07-09T15:39:20;35.90;74.10
5059;DHT22;2548;52.050;11.036;2023-07-09T15:41:48;35.90;74.20
5059;DHT22;2548;52.050;11.036;2023-07-09T15:44:17;35.90;74.50
5059;DHT22;2548;52.050;11.036;2023-07-09T15:46:52;35.80;74.20
5059;DHT22;2548;52.050;11.036;2023-07-09T15:49:23;35.80;72.50
5059;DHT22;2548;52.050;11.036;2023-07-09T15:51:50;35.70;72.70
5059;DHT22;2548;52.050;11.036;2023-07-09T15:54:20;35.50;72.30
5059;DHT22;2548;52.050;11.036;2023-07-09T15:56:51;35.50;75.30
5059;DHT22;2548;52.050;11.036;2023-07-09T15:59:27;35.60;75.20
5059;DHT22;2548;52.050;11.036;2023-07-09T16:01:57;35.60;73.50
5059;DHT22;2548;52.050;11.036;2023-07-09T16:04:26;35.50;72.50
5059;DHT22;2548;52.050;11.036;2023-07-09T16:06:54;35.40;72.30